sensor_id;sensor_type;location;lat;lon;timestamp;pressure;altitude;pressure_sealevel;temperature;humidity
11542;BME280;5827;49.482;7.716;2023-03-03T00:01:52;99082.03;;;0.22;97.47
11542;BME280;5827;49.482;7.716;2023-03-03T00:03:53;99081.59;;;0.19;97.06
11542;BME280;5827;49.482;7.716;2023-03-03T00:05:55;99082.22;;;0.21;96.19
11542;BME280;5827;49.482;7.716;2023-03-03T00:07:57;99077.13;;;0.19;95.88
11542;BME280;5827;49.482;7.716;2023-03-03T00:09:58;99076.31;;;0.19;95.91
11542;BME280;5827;49.482;7.716;2023-03-03T00:12:01;99078.13;;;0.18;96.13
11542;BME280;5827;49.482;7.716;2023-03-03T00:14:27;99083.53;;;0.17;96.33
11542;BME280;5827;49.482;7.716;2023-03-03T00:16:34;99078.97;;;0.11;95.62
11542;BME280;5827;49.482;7.716;2023-03-03T00:18:40;99087.88;;;-0.07;94.63
11542;BME280;5827;49.482;7.716;2023-03-03T00:20:47;99088.22;;;-0.10;94.70
11542;BME280;5827;49.482;7.716;2023-03-03T00:22:49;99095.47;;;-0.12;95.35
11542;BME280;5827;49.482;7.716;2023-03-03T00:24:50;99096.81;;;-0.48;95.54
11542;BME280;5827;49.482;7.716;2023-03-03T00:26:54;99087.91;;;-0.31;95.94
11542;BME280;5827;49.482;7.716;2023-03-03T00:28:55;99101.72;;;-0.21;96.51
11542;BME280;5827;49.482;7.716;2023-03-03T00:30:58;99094.50;;;-0.27;96.00
11542;BME280;5827;49.482;7.716;2023-03-03T00:33:09;99089.38;;;-0.37;96.88
11542;BME280;5827;49.482;7.716;2023-03-03T00:35:23;99093.19;;;-0.31;96.36
11542;BME280;5827;49.482;7.716;2023-03-03T00:37:29;99097.63;;;-0.32;96.45
11542;BME280;5827;49.482;7.716;2023-03-03T00:39:34;99103.53;;;-0.38;96.21
11542;BME280;5827;49.482;7.716;2023-03-03T00:41:38;99095.63;;;-0.38;96.77
11542;BME280;5827;49.482;7.716;2023-03-03T00:43:39;99098.94;;;-0.36;96.11
11542;BME280;5827;49.482;7.716;2023-03-03T00:45:43;99102.53;;;-0.37;96.65
11542;BME280;5827;49.482;7.716;2023-03-03T00:47:46;99097.44;;;-0.38;97.71
11542;BME280;5827;49.482;7.716;2023-03-03T00:49:49;99089.56;;;-0.46;98.75
11542;BME280;5827;49.482;7.716;2023-03-03T00:51:51;99084.16;;;-0.45;98.37
11542;BME280;5827;49.482;7.716;2023-03-03T00:53:54;99091.88;;;-0.43;98.63
11542;BME280;5827;49.482;7.716;2023-03-03T00:55:56;99096.13;;;-0.42;98.75
11542;BME280;5827;49.482;7.716;2023-03-03T00:57:58;99094.66;;;-0.29;98.76
11542;BME280;5827;49.482;7.716;2023-03-03T00:59:59;99102.72;;;-0.38;98.29
11542;BME280;5827;49.482;7.716;2023-03-03T01:02:01;99105.69;;;-0.25;97.76
11542;BME280;5827;49.482;7.716;2023-03-03T01:04:03;99103.88;;;-0.33;97.79
11542;BME280;5827;49.482;7.716;2023-03-03T01:06:06;99100.72;;;-0.28;97.96
11542;BME280;5827;49.482;7.716;2023-03-03T01:08:08;99101.72;;;-0.29;98.12
11542;BME280;5827;49.482;7.716;2023-03-03T01:10:10;99096.47;;;-0.21;98.05
11542;BME280;5827;49.482;7.716;2023-03-03T01:12:12;99098.59;;;-0.33;98.14
11542;BME280;5827;49.482;7.716;2023-03-03T01:14:14;99099.41;;;-0.32;97.69
11542;BME280;5827;49.482;7.716;2023-03-03T01:16:16;99099.75;;;-0.35;97.84
11542;BME280;5827;49.482;7.716;2023-03-03T01:18:18;99100.25;;;-0.40;97.64
11542;BME280;5827;49.482;7.716;2023-03-03T01:20:20;99101.56;;;-0.44;97.32
11542;BME280;5827;49.482;7.716;2023-03-03T01:22:23;99103.22;;;-0.43;97.37
11542;BME280;5827;49.482;7.716;2023-03-03T01:24:25;99101.09;;;-0.39;97.56
11542;BME280;5827;49.482;7.716;2023-03-03T01:26:26;99100.91;;;-0.54;97.25
11542;BME280;5827;49.482;7.716;2023-03-03T01:28:28;99101.38;;;-0.51;96.90
11542;BME280;5827;49.482;7.716;2023-03-03T01:30:30;99107.31;;;-0.48;97.41
11542;BME280;5827;49.482;7.716;2023-03-03T01:32:31;99101.25;;;-0.49;97.94
11542;BME280;5827;49.482;7.716;2023-03-03T01:34:33;99106.31;;;-0.56;97.97
11542;BME280;5827;49.482;7.716;2023-03-03T01:36:34;99105.66;;;-0.66;97.62
11542;BME280;5827;49.482;7.716;2023-03-03T01:38:38;99105.03;;;-0.68;96.92
11542;BME280;5827;49.482;7.716;2023-03-03T01:40:40;99107.47;;;-0.66;97.16
11542;BME280;5827;49.482;7.716;2023-03-03T01:42:41;99103.03;;;-0.66;97.01
11542;BME280;5827;49.482;7.716;2023-03-03T01:44:43;99100.91;;;-0.70;96.33
11542;BME280;5827;49.482;7.716;2023-03-03T01:46:47;99094.31;;;-0.74;96.11
11542;BME280;5827;49.482;7.716;2023-03-03T01:48:52;99096.94;;;-0.74;95.92
11542;BME280;5827;49.482;7.716;2023-03-03T01:51:00;99101.22;;;-0.73;96.24
11542;BME280;5827;49.482;7.716;2023-03-03T01:53:04;99102.34;;;-0.84;96.59
11542;BME280;5827;49.482;7.716;2023-03-03T01:55:14;99095.78;;;-0.88;97.72
11542;BME280;5827;49.482;7.716;2023-03-03T01:57:21;99090.84;;;-0.83;97.36
11542;BME280;5827;49.482;7.716;2023-03-03T01:59:28;99100.72;;;-0.77;96.39
11542;BME280;5827;49.482;7.716;2023-03-03T02:01:32;99093.47;;;-0.83;95.80
11542;BME280;5827;49.482;7.716;2023-03-03T02:03:34;99098.72;;;-0.83;96.44
11542;BME280;5827;49.482;7.716;2023-03-03T02:05:36;99088.22;;;-0.83;96.54
11542;BME280;5827;49.482;7.716;2023-03-03T02:07:38;99092.16;;;-0.79;96.28
11542;BME280;5827;49.482;7.716;2023-03-03T02:09:45;99083.28;;;-0.78;95.75
11542;BME280;5827;49.482;7.716;2023-03-03T02:11:54;99080.00;;;-0.88;96.42
11542;BME280;5827;49.482;7.716;2023-03-03T02:13:57;99081.78;;;-0.89;96.17
11542;BME280;5827;49.482;7.716;2023-03-03T02:15:58;99081.28;;;-0.92;96.54
11542;BME280;5827;49.482;7.716;2023-03-03T02:18:03;99090.19;;;-0.93;96.72
11542;BME280;5827;49.482;7.716;2023-03-03T02:20:08;99086.72;;;-0.94;96.49
11542;BME280;5827;49.482;7.716;2023-03-03T02:22:15;99083.44;;;-0.96;96.96
11542;BME280;5827;49.482;7.716;2023-03-03T02:24:24;99080.97;;;-0.97;96.95
11542;BME280;5827;49.482;7.716;2023-03-03T02:26:30;99086.56;;;-1.00;97.65
11542;BME280;5827;49.482;7.716;2023-03-03T02:28:34;99089.53;;;-0.95;97.32
11542;BME280;5827;49.482;7.716;2023-03-03T02:30:37;99087.38;;;-1.00;96.38
11542;BME280;5827;49.482;7.716;2023-03-03T02:32:39;99090.84;;;-0.99;96.92
11542;BME280;5827;49.482;7.716;2023-03-03T02:34:46;99088.34;;;-1.01;96.36
11542;BME280;5827;49.482;7.716;2023-03-03T02:36:48;99092.78;;;-1.10;96.56
11542;BME280;5827;49.482;7.716;2023-03-03T02:38:54;99090.13;;;-1.18;96.13
11542;BME280;5827;49.482;7.716;2023-03-03T02:41:03;99085.00;;;-1.19;96.56
11542;BME280;5827;49.482;7.716;2023-03-03T02:43:10;99085.84;;;-1.11;96.38
11542;BME280;5827;49.482;7.716;2023-03-03T02:45:12;99089.44;;;-1.28;96.58
11542;BME280;5827;49.482;7.716;2023-03-03T02:47:13;99091.94;;;-1.18;96.37
11542;BME280;5827;49.482;7.716;2023-03-03T02:49:18;99088.81;;;-1.14;96.43
11542;BME280;5827;49.482;7.716;2023-03-03T02:51:19;99086.81;;;-1.20;96.24
11542;BME280;5827;49.482;7.716;2023-03-03T02:53:21;99094.88;;;-1.21;95.74
11542;BME280;5827;49.482;7.716;2023-03-03T02:55:22;99088.47;;;-1.27;95.82
11542;BME280;5827;49.482;7.716;2023-03-03T02:57:24;99088.59;;;-1.29;96.39
11542;BME280;5827;49.482;7.716;2023-03-03T02:59:27;99090.91;;;-1.25;96.40
11542;BME280;5827;49.482;7.716;2023-03-03T03:01:29;99086.47;;;-1.25;96.10
11542;BME280;5827;49.482;7.716;2023-03-03T03:03:31;99087.63;;;-1.27;96.75
11542;BME280;5827;49.482;7.716;2023-03-03T03:05:32;99079.75;;;-1.27;96.77
11542;BME280;5827;49.482;7.716;2023-03-03T03:07:34;99085.97;;;-1.29;96.54
11542;BME280;5827;49.482;7.716;2023-03-03T03:09:35;99079.63;;;-1.60;97.39
11542;BME280;5827;49.482;7.716;2023-03-03T03:11:37;99078.09;;;-1.37;97.81
11542;BME280;5827;49.482;7.716;2023-03-03T03:13:39;99079.56;;;-1.34;97.42
11542;BME280;5827;49.482;7.716;2023-03-03T03:15:44;99087.47;;;-1.26;98.29
11542;BME280;5827;49.482;7.716;2023-03-03T03:17:45;99082.53;;;-1.37;97.32
11542;BME280;5827;49.482;7.716;2023-03-03T03:19:47;99090.06;;;-1.34;97.54
11542;BME280;5827;49.482;7.716;2023-03-03T03:21:49;99094.97;;;-1.39;96.88
11542;BME280;5827;49.482;7.716;2023-03-03T03:23:50;99097.09;;;-1.51;96.28
11542;BME280;5827;49.482;7.716;2023-03-03T03:25:52;99084.44;;;-1.47;96.42
11542;BME280;5827;49.482;7.716;2023-03-03T03:27:53;99094.13;;;-1.48;96.23
11542;BME280;5827;49.482;7.716;2023-03-03T03:29:55;99092.00;;;-1.44;96.34
11542;BME280;5827;49.482;7.716;2023-03-03T03:31:57;99092.94;;;-1.54;96.22
11542;BME280;5827;49.482;7.716;2023-03-03T03:33:59;99083.38;;;-1.63;96.25
11542;BME280;5827;49.482;7.716;2023-03-03T03:36:01;99089.97;;;-1.59;96.24
11542;BME280;5827;49.482;7.716;2023-03-03T03:38:02;99093.25;;;-1.57;96.24
11542;BME280;5827;49.482;7.716;2023-03-03T03:40:05;99092.44;;;-1.57;95.41
11542;BME280;5827;49.482;7.716;2023-03-03T03:42:06;99101.47;;;-1.60;95.13
11542;BME280;5827;49.482;7.716;2023-03-03T03:44:08;99107.69;;;-1.61;95.60
11542;BME280;5827;49.482;7.716;2023-03-03T03:46:10;99101.72;;;-1.71;95.86
11542;BME280;5827;49.482;7.716;2023-03-03T03:48:13;99104.88;;;-1.67;96.15
11542;BME280;5827;49.482;7.716;2023-03-03T03:50:16;99107.00;;;-1.71;96.73
11542;BME280;5827;49.482;7.716;2023-03-03T03:52:17;99099.94;;;-1.70;96.90
11542;BME280;5827;49.482;7.716;2023-03-03T03:54:19;99093.34;;;-1.74;96.69
11542;BME280;5827;49.482;7.716;2023-03-03T03:56:20;99083.16;;;-1.77;97.50
11542;BME280;5827;49.482;7.716;2023-03-03T03:58:22;99096.69;;;-1.64;97.04
11542;BME280;5827;49.482;7.716;2023-03-03T04:00:23;99092.03;;;-1.70;97.10
11542;BME280;5827;49.482;7.716;2023-03-03T04:02:25;99090.94;;;-1.68;96.42
11542;BME280;5827;49.482;7.716;2023-03-03T04:04:28;99095.13;;;-1.75;96.30
11542;BME280;5827;49.482;7.716;2023-03-03T04:06:29;99093.50;;;-1.76;96.65
11542;BME280;5827;49.482;7.716;2023-03-03T04:08:31;99102.38;;;-1.77;96.31
11542;BME280;5827;49.482;7.716;2023-03-03T04:10:32;99099.56;;;-1.75;96.14
11542;BME280;5827;49.482;7.716;2023-03-03T04:12:34;99108.38;;;-1.85;95.61
11542;BME280;5827;49.482;7.716;2023-03-03T04:14:37;99102.59;;;-1.96;96.71
11542;BME280;5827;49.482;7.716;2023-03-03T04:16:39;99103.31;;;-1.86;96.68
11542;BME280;5827;49.482;7.716;2023-03-03T04:18:41;99111.69;;;-1.83;96.41
11542;BME280;5827;49.482;7.716;2023-03-03T04:20:43;99106.75;;;-1.86;95.81
11542;BME280;5827;49.482;7.716;2023-03-03T04:22:45;99103.31;;;-1.86;96.42
11542;BME280;5827;49.482;7.716;2023-03-03T04:24:47;99103.13;;;-1.85;96.17
11542;BME280;5827;49.482;7.716;2023-03-03T04:26:48;99097.88;;;-1.85;95.96
11542;BME280;5827;49.482;7.716;2023-03-03T04:28:50;99097.41;;;-1.80;96.32
11542;BME280;5827;49.482;7.716;2023-03-03T04:30:51;99101.25;;;-2.00;96.53
11542;BME280;5827;49.482;7.716;2023-03-03T04:32:53;99106.22;;;-1.89;96.70
11542;BME280;5827;49.482;7.716;2023-03-03T04:34:54;99105.47;;;-1.82;96.49
11542;BME280;5827;49.482;7.716;2023-03-03T04:36:57;99115.66;;;-1.78;96.94
11542;BME280;5827;49.482;7.716;2023-03-03T04:38:59;99110.72;;;-1.82;96.19
11542;BME280;5827;49.482;7.716;2023-03-03T04:41:00;99109.44;;;-1.77;96.21
11542;BME280;5827;49.482;7.716;2023-03-03T04:43:02;99104.13;;;-1.86;95.90
11542;BME280;5827;49.482;7.716;2023-03-03T04:45:05;99113.97;;;-1.88;95.35
11542;BME280;5827;49.482;7.716;2023-03-03T04:47:06;99116.59;;;-1.88;95.14
11542;BME280;5827;49.482;7.716;2023-03-03T04:49:08;99108.66;;;-1.96;94.76
11542;BME280;5827;49.482;7.716;2023-03-03T04:51:09;99111.13;;;-1.94;95.73
11542;BME280;5827;49.482;7.716;2023-03-03T04:53:12;99113.28;;;-1.90;95.30
11542;BME280;5827;49.482;7.716;2023-03-03T04:55:13;99109.69;;;-1.89;95.29
11542;BME280;5827;49.482;7.716;2023-03-03T04:57:15;99108.09;;;-1.82;95.66
11542;BME280;5827;49.482;7.716;2023-03-03T04:59:17;99114.97;;;-1.81;95.67
11542;BME280;5827;49.482;7.716;2023-03-03T05:01:18;99113.19;;;-1.80;95.71
11542;BME280;5827;49.482;7.716;2023-03-03T05:03:20;99114.00;;;-1.80;95.41
11542;BME280;5827;49.482;7.716;2023-03-03T05:05:22;99119.13;;;-1.78;95.57
11542;BME280;5827;49.482;7.716;2023-03-03T05:07:23;99124.03;;;-1.75;95.18
11542;BME280;5827;49.482;7.716;2023-03-03T05:09:26;99129.00;;;-1.72;95.05
11542;BME280;5827;49.482;7.716;2023-03-03T05:11:28;99127.00;;;-1.70;94.65
11542;BME280;5827;49.482;7.716;2023-03-03T05:13:29;99127.88;;;-1.69;94.26
11542;BME280;5827;49.482;7.716;2023-03-03T05:15:31;99126.16;;;-2.05;95.29
11542;BME280;5827;49.482;7.716;2023-03-03T05:17:32;99130.31;;;-1.94;95.05
11542;BME280;5827;49.482;7.716;2023-03-03T05:19:34;99131.38;;;-1.87;95.08
11542;BME280;5827;49.482;7.716;2023-03-03T05:21:35;99135.81;;;-1.87;94.72
11542;BME280;5827;49.482;7.716;2023-03-03T05:23:41;99133.31;;;-1.89;94.39
11542;BME280;5827;49.482;7.716;2023-03-03T05:25:45;99135.75;;;-1.95;95.59
11542;BME280;5827;49.482;7.716;2023-03-03T05:27:47;99127.09;;;-1.88;95.94
11542;BME280;5827;49.482;7.716;2023-03-03T05:29:48;99128.94;;;-1.80;96.00
11542;BME280;5827;49.482;7.716;2023-03-03T05:31:50;99125.50;;;-1.81;95.94
11542;BME280;5827;49.482;7.716;2023-03-03T05:33:52;99129.25;;;-1.83;95.73
11542;BME280;5827;49.482;7.716;2023-03-03T05:35:54;99134.66;;;-1.85;95.68
11542;BME280;5827;49.482;7.716;2023-03-03T05:37:55;99138.78;;;-1.82;95.24
11542;BME280;5827;49.482;7.716;2023-03-03T05:39:58;99138.19;;;-1.94;95.53
11542;BME280;5827;49.482;7.716;2023-03-03T05:42:01;99140.53;;;-1.91;95.81
11542;BME280;5827;49.482;7.716;2023-03-03T05:44:03;99148.75;;;-1.86;95.53
11542;BME280;5827;49.482;7.716;2023-03-03T05:46:04;99148.25;;;-1.89;94.74
11542;BME280;5827;49.482;7.716;2023-03-03T05:48:06;99153.97;;;-1.94;94.16
11542;BME280;5827;49.482;7.716;2023-03-03T05:50:09;99157.31;;;-2.10;93.71
11542;BME280;5827;49.482;7.716;2023-03-03T05:52:11;99161.88;;;-2.12;93.96
11542;BME280;5827;49.482;7.716;2023-03-03T05:54:13;99165.94;;;-2.17;93.61
11542;BME280;5827;49.482;7.716;2023-03-03T05:56:15;99158.59;;;-2.14;94.18
11542;BME280;5827;49.482;7.716;2023-03-03T05:58:18;99163.00;;;-2.14;94.30
11542;BME280;5827;49.482;7.716;2023-03-03T06:00:20;99176.72;;;-2.20;93.86
11542;BME280;5827;49.482;7.716;2023-03-03T06:02:21;99181.84;;;-2.19;94.26
11542;BME280;5827;49.482;7.716;2023-03-03T06:04:23;99170.06;;;-2.15;94.32
11542;BME280;5827;49.482;7.716;2023-03-03T06:06:24;99173.50;;;-2.14;94.61
11542;BME280;5827;49.482;7.716;2023-03-03T06:08:27;99170.78;;;-2.05;94.72
11542;BME280;5827;49.482;7.716;2023-03-03T06:10:29;99180.31;;;-2.03;94.07
11542;BME280;5827;49.482;7.716;2023-03-03T06:12:31;99180.56;;;-2.33;94.04
11542;BME280;5827;49.482;7.716;2023-03-03T06:14:34;99181.84;;;-2.19;94.72
11542;BME280;5827;49.482;7.716;2023-03-03T06:16:35;99173.19;;;-2.11;94.50
11542;BME280;5827;49.482;7.716;2023-03-03T06:18:37;99174.41;;;-2.06;94.55
11542;BME280;5827;49.482;7.716;2023-03-03T06:20:38;99185.19;;;-2.09;95.24
11542;BME280;5827;49.482;7.716;2023-03-03T06:22:40;99186.25;;;-2.01;95.83
11542;BME280;5827;49.482;7.716;2023-03-03T06:24:41;99188.78;;;-1.92;95.51
11542;BME280;5827;49.482;7.716;2023-03-03T06:26:43;99192.97;;;-1.99;95.51
11542;BME280;5827;49.482;7.716;2023-03-03T06:28:44;99190.59;;;-1.92;95.27
11542;BME280;5827;49.482;7.716;2023-03-03T06:30:52;99189.06;;;-1.95;95.38
11542;BME280;5827;49.482;7.716;2023-03-03T06:32:53;99182.25;;;-1.88;94.85
11542;BME280;5827;49.482;7.716;2023-03-03T06:34:55;99181.91;;;-1.85;95.16
11542;BME280;5827;49.482;7.716;2023-03-03T06:36:56;99177.50;;;-1.84;94.75
11542;BME280;5827;49.482;7.716;2023-03-03T06:38:58;99185.72;;;-1.79;94.40
11542;BME280;5827;49.482;7.716;2023-03-03T06:41:00;99196.97;;;-1.69;93.92
11542;BME280;5827;49.482;7.716;2023-03-03T06:43:06;99193.00;;;-1.73;93.51
11542;BME280;5827;49.482;7.716;2023-03-03T06:45:09;99196.28;;;-1.71;93.39
11542;BME280;5827;49.482;7.716;2023-03-03T06:47:12;99195.41;;;-1.80;92.90
11542;BME280;5827;49.482;7.716;2023-03-03T06:49:13;99191.66;;;-1.77;93.45
11542;BME280;5827;49.482;7.716;2023-03-03T06:51:22;99194.94;;;-1.75;93.08
11542;BME280;5827;49.482;7.716;2023-03-03T06:53:26;99197.28;;;-1.72;93.47
11542;BME280;5827;49.482;7.716;2023-03-03T06:55:27;99200.56;;;-1.70;93.44
11542;BME280;5827;49.482;7.716;2023-03-03T06:57:31;99211.75;;;-1.68;93.15
11542;BME280;5827;49.482;7.716;2023-03-03T06:59:32;99223.16;;;-1.59;92.90
11542;BME280;5827;49.482;7.716;2023-03-03T07:01:35;99225.59;;;-1.58;92.27
11542;BME280;5827;49.482;7.716;2023-03-03T07:03:38;99233.66;;;-1.59;91.54
11542;BME280;5827;49.482;7.716;2023-03-03T07:05:40;99239.03;;;-1.61;91.06
11542;BME280;5827;49.482;7.716;2023-03-03T07:07:42;99241.38;;;-1.58;91.02
11542;BME280;5827;49.482;7.716;2023-03-03T07:09:44;99246.78;;;-1.59;91.18
11542;BME280;5827;49.482;7.716;2023-03-03T07:11:46;99248.78;;;-1.53;90.68
11542;BME280;5827;49.482;7.716;2023-03-03T07:13:49;99237.53;;;-1.45;91.04
11542;BME280;5827;49.482;7.716;2023-03-03T07:15:52;99242.31;;;-1.41;91.20
11542;BME280;5827;49.482;7.716;2023-03-03T07:17:55;99233.28;;;-1.38;91.32
11542;BME280;5827;49.482;7.716;2023-03-03T07:20:00;99242.72;;;-1.27;92.08
11542;BME280;5827;49.482;7.716;2023-03-03T07:22:12;99236.34;;;-1.17;92.08
11542;BME280;5827;49.482;7.716;2023-03-03T07:24:24;99245.06;;;-1.16;91.69
11542;BME280;5827;49.482;7.716;2023-03-03T07:26:29;99251.50;;;-1.11;91.60
11542;BME280;5827;49.482;7.716;2023-03-03T07:28:32;99255.03;;;-0.94;92.05
11542;BME280;5827;49.482;7.716;2023-03-03T07:30:34;99256.91;;;-0.86;91.14
11542;BME280;5827;49.482;7.716;2023-03-03T07:32:38;99259.88;;;-0.81;91.10
11542;BME280;5827;49.482;7.716;2023-03-03T07:34:43;99249.53;;;-0.74;91.54
11542;BME280;5827;49.482;7.716;2023-03-03T07:36:48;99248.06;;;-0.69;91.38
11542;BME280;5827;49.482;7.716;2023-03-03T07:38:52;99255.94;;;-0.69;91.80
11542;BME280;5827;49.482;7.716;2023-03-03T07:40:55;99261.34;;;-0.79;91.94
11542;BME280;5827;49.482;7.716;2023-03-03T07:42:57;99258.00;;;-0.55;92.85
11542;BME280;5827;49.482;7.716;2023-03-03T07:44:59;99262.75;;;-0.58;92.44
11542;BME280;5827;49.482;7.716;2023-03-03T07:47:14;99262.16;;;-0.36;92.16
11542;BME280;5827;49.482;7.716;2023-03-03T07:49:21;99266.78;;;-0.21;91.78
11542;BME280;5827;49.482;7.716;2023-03-03T07:51:25;99264.66;;;-0.18;91.77
11542;BME280;5827;49.482;7.716;2023-03-03T07:53:30;99267.63;;;-0.05;91.61
11542;BME280;5827;49.482;7.716;2023-03-03T07:55:35;99269.44;;;-0.05;91.92
11542;BME280;5827;49.482;7.716;2023-03-03T07:57:37;99273.09;;;0.18;91.28
11542;BME280;5827;49.482;7.716;2023-03-03T07:59:45;99275.88;;;0.25;90.56
11542;BME280;5827;49.482;7.716;2023-03-03T08:01:51;99279.16;;;0.27;90.89
11542;BME280;5827;49.482;7.716;2023-03-03T08:03:55;99272.25;;;0.34;90.59
11542;BME280;5827;49.482;7.716;2023-03-03T08:05:56;99276.03;;;0.48;91.56
11542;BME280;5827;49.482;7.716;2023-03-03T08:08:11;99278.50;;;0.58;90.53
11542;BME280;5827;49.482;7.716;2023-03-03T08:10:30;99282.78;;;0.67;91.06
11542;BME280;5827;49.482;7.716;2023-03-03T08:12:37;99280.13;;;0.75;90.88
11542;BME280;5827;49.482;7.716;2023-03-03T08:14:40;99278.81;;;0.79;91.03
11542;BME280;5827;49.482;7.716;2023-03-03T08:16:42;99288.03;;;0.83;90.52
11542;BME280;5827;49.482;7.716;2023-03-03T08:18:46;99279.78;;;0.86;91.11
11542;BME280;5827;49.482;7.716;2023-03-03T08:20:49;99276.78;;;0.97;90.90
11542;BME280;5827;49.482;7.716;2023-03-03T08:22:51;99276.78;;;1.06;90.73
11542;BME280;5827;49.482;7.716;2023-03-03T08:24:52;99279.53;;;1.20;90.02
11542;BME280;5827;49.482;7.716;2023-03-03T08:26:55;99282.28;;;1.27;89.34
11542;BME280;5827;49.482;7.716;2023-03-03T08:28:57;99287.38;;;1.37;89.57
11542;BME280;5827;49.482;7.716;2023-03-03T08:31:00;99291.47;;;1.47;89.28
11542;BME280;5827;49.482;7.716;2023-03-03T08:33:02;99286.97;;;1.56;88.91
11542;BME280;5827;49.482;7.716;2023-03-03T08:35:04;99296.66;;;1.64;88.16
11542;BME280;5827;49.482;7.716;2023-03-03T08:37:06;99298.63;;;1.70;87.78
11542;BME280;5827;49.482;7.716;2023-03-03T08:39:07;99303.03;;;1.77;87.73
11542;BME280;5827;49.482;7.716;2023-03-03T08:41:10;99304.47;;;1.88;87.44
11542;BME280;5827;49.482;7.716;2023-03-03T08:43:14;99300.78;;;1.97;87.76
11542;BME280;5827;49.482;7.716;2023-03-03T08:45:16;99308.81;;;2.04;87.31
11542;BME280;5827;49.482;7.716;2023-03-03T08:47:18;99307.28;;;2.10;87.90
11542;BME280;5827;49.482;7.716;2023-03-03T08:49:20;99312.53;;;2.18;87.73
11542;BME280;5827;49.482;7.716;2023-03-03T08:51:21;99313.00;;;2.21;87.21
11542;BME280;5827;49.482;7.716;2023-03-03T08:53:24;99316.84;;;2.34;86.72
11542;BME280;5827;49.482;7.716;2023-03-03T08:55:26;99315.97;;;2.41;86.78
11542;BME280;5827;49.482;7.716;2023-03-03T08:57:28;99310.28;;;2.52;86.17
11542;BME280;5827;49.482;7.716;2023-03-03T08:59:30;99320.25;;;2.65;85.57
11542;BME280;5827;49.482;7.716;2023-03-03T09:01:36;99317.38;;;2.75;84.94
11542;BME280;5827;49.482;7.716;2023-03-03T09:03:38;99314.53;;;2.76;84.74
11542;BME280;5827;49.482;7.716;2023-03-03T09:05:40;99323.84;;;2.87;85.28
11542;BME280;5827;49.482;7.716;2023-03-03T09:07:43;99317.94;;;3.00;85.10
11542;BME280;5827;49.482;7.716;2023-03-03T09:09:44;99316.03;;;3.09;86.21
11542;BME280;5827;49.482;7.716;2023-03-03T09:11:46;99314.41;;;3.22;86.09
11542;BME280;5827;49.482;7.716;2023-03-03T09:13:47;99309.91;;;3.38;86.15
11542;BME280;5827;49.482;7.716;2023-03-03T09:15:55;99305.00;;;3.49;86.24
11542;BME280;5827;49.482;7.716;2023-03-03T09:17:57;99308.19;;;3.60;86.35
11542;BME280;5827;49.482;7.716;2023-03-03T09:20:03;99311.53;;;3.68;85.84
11542;BME280;5827;49.482;7.716;2023-03-03T09:22:19;99314.53;;;3.80;86.64
11542;BME280;5827;49.482;7.716;2023-03-03T09:24:24;99316.16;;;3.96;85.86
11542;BME280;5827;49.482;7.716;2023-03-03T09:26:28;99313.69;;;4.16;85.85
11542;BME280;5827;49.482;7.716;2023-03-03T09:28:31;99324.44;;;4.29;84.79
11542;BME280;5827;49.482;7.716;2023-03-03T09:30:36;99329.25;;;4.40;84.12
11542;BME280;5827;49.482;7.716;2023-03-03T09:32:40;99326.22;;;4.43;84.06
11542;BME280;5827;49.482;7.716;2023-03-03T09:34:42;99331.75;;;4.70;82.69
11542;BME280;5827;49.482;7.716;2023-03-03T09:36:43;99330.66;;;4.85;81.90
11542;BME280;5827;49.482;7.716;2023-03-03T09:38:45;99333.72;;;4.82;81.14
11542;BME280;5827;49.482;7.716;2023-03-03T09:40:58;99333.00;;;4.95;81.77
11542;BME280;5827;49.482;7.716;2023-03-03T09:43:08;99331.19;;;5.02;81.05
11542;BME280;5827;49.482;7.716;2023-03-03T09:45:23;99333.56;;;5.19;80.53
11542;BME280;5827;49.482;7.716;2023-03-03T09:47:37;99331.34;;;5.22;77.60
11542;BME280;5827;49.482;7.716;2023-03-03T09:49:48;99335.50;;;5.31;78.57
11542;BME280;5827;49.482;7.716;2023-03-03T09:52:02;99329.97;;;5.33;78.53
11542;BME280;5827;49.482;7.716;2023-03-03T09:54:24;99342.31;;;5.47;78.74
11542;BME280;5827;49.482;7.716;2023-03-03T09:56:32;99345.03;;;5.60;75.73
11542;BME280;5827;49.482;7.716;2023-03-03T09:58:45;99344.69;;;5.77;76.78
11542;BME280;5827;49.482;7.716;2023-03-03T10:00:58;99341.78;;;5.65;77.02
11542;BME280;5827;49.482;7.716;2023-03-03T10:05:39;99355.53;;;6.10;74.59
11542;BME280;5827;49.482;7.716;2023-03-03T10:07:51;99357.53;;;6.01;72.74
11542;BME280;5827;49.482;7.716;2023-03-03T10:10:05;99364.75;;;6.27;73.42
11542;BME280;5827;49.482;7.716;2023-03-03T10:12:11;99362.72;;;6.36;73.52
11542;BME280;5827;49.482;7.716;2023-03-03T10:14:31;99361.97;;;6.55;73.17
11542;BME280;5827;49.482;7.716;2023-03-03T10:16:52;99366.28;;;6.56;72.98
11542;BME280;5827;49.482;7.716;2023-03-03T10:19:00;99381.44;;;6.76;69.48
11542;BME280;5827;49.482;7.716;2023-03-03T10:21:08;99369.56;;;6.72;70.28
11542;BME280;5827;49.482;7.716;2023-03-03T10:23:18;99376.94;;;6.90;70.39
11542;BME280;5827;49.482;7.716;2023-03-03T10:25:28;99382.09;;;6.98;69.07
11542;BME280;5827;49.482;7.716;2023-03-03T10:27:46;99380.44;;;6.90;69.77
11542;BME280;5827;49.482;7.716;2023-03-03T10:29:59;99380.00;;;6.86;69.44
11542;BME280;5827;49.482;7.716;2023-03-03T10:32:29;99381.88;;;6.93;70.39
11542;BME280;5827;49.482;7.716;2023-03-03T10:34:48;99376.13;;;7.16;70.31
11542;BME280;5827;49.482;7.716;2023-03-03T10:37:00;99377.56;;;6.98;70.06
11542;BME280;5827;49.482;7.716;2023-03-03T10:39:17;99379.59;;;7.23;71.13
11542;BME280;5827;49.482;7.716;2023-03-03T10:41:36;99383.31;;;7.02;69.81
11542;BME280;5827;49.482;7.716;2023-03-03T10:43:59;99384.56;;;7.06;70.11
11542;BME280;5827;49.482;7.716;2023-03-03T10:46:33;99384.94;;;7.16;70.01
11542;BME280;5827;49.482;7.716;2023-03-03T10:49:12;99391.28;;;7.28;68.66
11542;BME280;5827;49.482;7.716;2023-03-03T10:51:25;99395.16;;;7.52;68.70
11542;BME280;5827;49.482;7.716;2023-03-03T10:53:34;99397.81;;;7.52;67.70
11542;BME280;5827;49.482;7.716;2023-03-03T10:55:47;99397.22;;;7.44;67.41
11542;BME280;5827;49.482;7.716;2023-03-03T10:58:05;99386.72;;;7.55;67.48
11542;BME280;5827;49.482;7.716;2023-03-03T11:00:25;99381.56;;;7.80;66.90
11542;BME280;5827;49.482;7.716;2023-03-03T11:02:35;99380.91;;;7.85;66.81
11542;BME280;5827;49.482;7.716;2023-03-03T11:04:49;99371.06;;;7.85;67.39
11542;BME280;5827;49.482;7.716;2023-03-03T11:07:01;99375.94;;;7.95;67.06
11542;BME280;5827;49.482;7.716;2023-03-03T11:09:12;99373.06;;;7.97;64.02
11542;BME280;5827;49.482;7.716;2023-03-03T11:11:23;99380.47;;;7.95;65.08
11542;BME280;5827;49.482;7.716;2023-03-03T11:13:36;99375.91;;;8.08;65.51
11542;BME280;5827;49.482;7.716;2023-03-03T11:15:45;99377.06;;;8.19;63.95